Aeroporto :
LOGIN :

Iscrizione | Disclaimer

   EN    FR    IT 

 










Sommario :    VFR   VFR Marginale   IFR   IFR Intensivo   IFR Molto Intensivo
Visibilità : 
Base nubi : 
>= 8 km
>= 3000ft
5 / 8 km
1000 / 3000 ft
1500m / 5 km
500 / 1000 ft
800 / 1500m
200 / 500 ft
< 800m
< 200 ft
Simboli :   Temporali  Nebbia  Neve Forte  Precipitazioni Forti  Vento > 20 kt
SIGMETs :   Varie  Temporali  Ghiacco  Turbolenza  Onda orograficha  Ceneri Vulcaniche







- Altitudine del aeroporto : 45 ft
- Codice IATA : CEG
- Carte del aeroporto


EGNR - Hawarden Chester

ULTIMO METAR :
  • 190950Z 32009KT 9999 VCSH SCT010 BKN020 12/09 Q1012

METARs OBSOLETI :
  • 190920Z 32009KT 9999 VCSH FEW010 BKN015 12/10 Q1012
  • 190850Z 31005KT 210V350 9999 -DZ SCT012 BKN028 13/10 Q1011
  • 190820Z 31005KT 280V350 9999 -DZ SCT012 BKN028 12/10 Q1011
  • 190750Z 34005KT 9999 -DZ SCT012 BKN017 12/10 Q1011
  • 190720Z 32004KT 290V350 9999 -SHRA SCT016 SCT030 12/10 Q1011

TAF TAF EGNR
Valido dal 19 a 09 ore il 19 a 18 ore UTC


190800Z 1909/1918 33006KT 9999 SCT030
PROB30
TEMPO 1909/1911 BKN012
PROB30
TEMPO 1911/1915 5000 SHRA
Nessun NOTAM noto per questo aeroporto.



MetMap, La meteo Aeronautica in un colpo d'occhio ! - Copyright ORBIFLY Dicembre 2007 - Disclaimer

ORBIFLY MET'MAP TEAM :

Programmazione e sviluppo : Alexandra Zaïnal
Concezione e sviluppo : Baudouin d'Aumeries
Co-Programmazione e sviluppo : Marc-Olivier Méhu
Supporto tecnico e logistico : Manuel Goepfert
Aiuto per la traduzione : Arnaldo La Scala

Contatto : metmap@orbifly.com




FONTI E CREDITI :

   NOAA